Terminal Aerodrome Forecast
Issued by NWS

Home | Current Version | Previous Version | Text Only | Print | Product List | Glossary On
Versions: 1 2 3 4 5 6 7 8 9 10 11 12 13 14 15 16 17 18 19 20 21 22 23 24 25 26 27 28 29 30 31 32 33 34 35 36
000
FTUS46 KOTX 182103 AAA
TAFMWH
TAF AMD
KMWH 182103Z 1821/1918 10003KT 4SM BR SCT070 OVC150
     FM190200 11005KT 4SM -FZRA BR BKN010 OVC040
     FM190600 12005KT 3SM -RA BR OVC008
     FM191000 13004KT 3SM BR OVC006=

USA.gov is the U.S. government's official web portal to all federal, state and local government web resources and services.